»·PEaware :: N196EC KHND-KSAN

N196EC :: KHND-KSAN

FLIGHT INFORMATION

Flight Status: Arrived
Operator: Privately registered:
United States
More flights under this callsign
Pilot: Adrián R. (20842)
Aircraft: SOCATA TBM-900
(TBM9)
More flights by this aircraft type
Origin: KHND Henderson
United States
Destination: KSAN San Diego Intl-Lindbergh
United States
More flights between these airports :: More routes between these airports
Route: +PALLY5 TNP V514 MZB
File this flight plan on PilotEdge
Remarks:
Altitude:
(Current/Filed)
30,000ft
Speed:
(Current/Filed)
313kts
Departed: 19-Nov-18 08:38 AM
Arrived: 19-Nov-18 09:39 AM
Distance/Time
Traveled:
219nm/1:01
Distance/Time
To Go:
Arrived

Flight Plot

Page will automatically refresh every two minutes.

Flight plan parsing failed; only flown route is shown


Map Options




Map Legend


Flown Route
Filed Route
Departure Airport
Arrival Airport
Navaid (VOR, NDB)
Fix

Horizontal Profiles

Position Reports

Time Latitude Longitude Heading Altitude Ground
Speed
19-Nov-18 07:56 35.978577 -115.138184 357 2449ft 0kts
19-Nov-18 07:57 35.978577 -115.138184 357 2449ft 0kts
19-Nov-18 07:58 35.978577 -115.138184 357 2449ft 0kts
19-Nov-18 07:59 35.978577 -115.138184 357 2449ft 0kts
19-Nov-18 08:00 35.978577 -115.138184 357 2449ft 0kts
19-Nov-18 08:01 35.978577 -115.138184 357 2449ft 0kts
19-Nov-18 08:02 35.978577 -115.138184 357 2449ft 0kts
19-Nov-18 08:03 35.978577 -115.138184 357 2449ft 0kts
19-Nov-18 08:04 35.978577 -115.138184 357 2449ft 0kts
19-Nov-18 08:05 35.978577 -115.138184 357 2449ft 0kts
19-Nov-18 08:06 35.978577 -115.138184 357 2449ft 0kts
19-Nov-18 08:07 35.978577 -115.138184 357 2449ft 0kts
19-Nov-18 08:08 35.978577 -115.138184 357 2449ft 0kts
19-Nov-18 08:09 35.978577 -115.138184 357 2449ft 0kts
19-Nov-18 08:10 35.978577 -115.138184 357 2449ft 0kts
19-Nov-18 08:11 35.978577 -115.138184 357 2449ft 0kts
19-Nov-18 08:12 35.978577 -115.138184 357 2449ft 0kts
19-Nov-18 08:13 35.978577 -115.138184 357 2449ft 0kts
19-Nov-18 08:14 35.978577 -115.138184 357 2449ft 0kts
19-Nov-18 08:15 35.978577 -115.138184 357 2449ft 0kts
19-Nov-18 08:16 35.978577 -115.138184 357 2449ft 0kts
19-Nov-18 08:17 35.978577 -115.138184 357 2449ft 0kts
19-Nov-18 08:18 35.978577 -115.138184 357 2449ft 0kts
19-Nov-18 08:19 35.978577 -115.138184 357 2449ft 0kts
19-Nov-18 08:20 35.978577 -115.138184 357 2449ft 0kts
19-Nov-18 08:21 35.978577 -115.138184 357 2449ft 0kts
19-Nov-18 08:22 35.978577 -115.138184 357 2449ft 0kts
19-Nov-18 08:23 35.978577 -115.138184 357 2449ft 0kts
19-Nov-18 08:24 35.978577 -115.138184 357 2449ft 0kts
19-Nov-18 08:25 35.978577 -115.138184 357 2449ft 0kts
19-Nov-18 08:26 35.978577 -115.138184 357 2449ft 0kts
19-Nov-18 08:27 35.978577 -115.138184 357 2449ft 0kts
19-Nov-18 08:28 35.978577 -115.138184 357 2449ft 0kts
19-Nov-18 08:29 35.978577 -115.138184 357 2449ft 0kts
19-Nov-18 08:30 35.978577 -115.138184 357 2449ft 0kts
19-Nov-18 08:31 35.979137 -115.137976 58 2449ft 7kts
19-Nov-18 08:32 35.979254 -115.137055 91 2449ft 2kts
19-Nov-18 08:33 35.977391 -115.136388 180 2449ft 12kts
19-Nov-18 08:34 35.973548 -115.136436 180 2449ft 15kts
19-Nov-18 08:35 35.969593 -115.136479 180 2449ft 14kts
19-Nov-18 08:36 35.965169 -115.136536 180 2449ft 17kts
19-Nov-18 08:37 35.963105 -115.136405 88 2449ft 0kts
19-Nov-18 08:38 35.963105 -115.136405 88 2449ft 0kts
19-Nov-18 08:39 35.963105 -115.136405 88 2449ft 0kts
19-Nov-18 08:40 35.963379 -115.135539 359 2449ft 0kts
19-Nov-18 08:41 35.978771 -115.135272 1 2724ft 144kts
19-Nov-18 08:42 36.003863 -115.102781 85 4847ft 160kts
19-Nov-18 08:43 36.007568 -115.044212 84 6034ft 207kts
19-Nov-18 08:44 35.979557 -114.987933 159 6713ft 198kts
19-Nov-18 08:45 35.929075 -114.966240 160 8911ft 193kts
19-Nov-18 08:46 35.881070 -114.983012 218 10993ft 199kts
19-Nov-18 08:47 35.837280 -115.026521 218 12976ft 206kts
19-Nov-18 08:48 35.791921 -115.071765 218 14885ft 215kts
19-Nov-18 08:49 35.752735 -115.127330 241 16748ft 223kts
19-Nov-18 08:50 35.723034 -115.193933 238 18678ft 218kts
19-Nov-18 08:51 35.693493 -115.259735 238 20252ft 224kts
19-Nov-18 08:52 35.639980 -115.286705 185 22050ft 223kts
19-Nov-18 08:53 35.577476 -115.293653 186 23739ft 230kts
19-Nov-18 08:54 35.513308 -115.300677 186 25358ft 236kts
19-Nov-18 08:55 35.446561 -115.303824 184 26820ft 244kts
19-Nov-18 08:56 35.378063 -115.306538 184 28115ft 251kts
19-Nov-18 08:57 35.307432 -115.309329 184 29287ft 258kts
19-Nov-18 08:58 35.234655 -115.312201 185 30245ft 267kts
19-Nov-18 08:59 35.156495 -115.315294 185 30241ft 295kts
19-Nov-18 09:00 35.072858 -115.318570 185 30227ft 305kts
19-Nov-18 09:01 34.987815 -115.321847 185 30218ft 308kts
19-Nov-18 09:02 34.902357 -115.325170 187 30215ft 308kts
19-Nov-18 09:03 34.819523 -115.328443 188 30216ft 307kts
19-Nov-18 09:04 34.738387 -115.349615 205 30217ft 297kts
19-Nov-18 09:05 34.660883 -115.383534 205 30216ft 297kts
19-Nov-18 09:06 34.583202 -115.417496 205 30218ft 297kts
19-Nov-18 09:07 34.505655 -115.451334 205 30214ft 297kts
19-Nov-18 09:08 34.427771 -115.485245 205 30205ft 297kts
19-Nov-18 09:09 34.350152 -115.518989 205 30184ft 297kts
19-Nov-18 09:10 34.285488 -115.574922 227 30160ft 288kts
19-Nov-18 09:11 34.227121 -115.640843 226 30150ft 287kts
19-Nov-18 09:12 34.175161 -115.699284 226 30157ft 288kts
19-Nov-18 09:13 34.120761 -115.760343 226 30157ft 288kts
19-Nov-18 09:14 34.054684 -115.816546 218 30156ft 292kts
19-Nov-18 09:15 33.987430 -115.871039 218 30157ft 292kts
19-Nov-18 09:16 33.920050 -115.925481 218 30155ft 292kts
19-Nov-18 09:17 33.854021 -115.978801 217 28850ft 318kts
19-Nov-18 09:18 33.780067 -116.038309 216 27116ft 319kts
19-Nov-18 09:19 33.707769 -116.096372 215 25633ft 314kts
19-Nov-18 09:20 33.635560 -116.154243 215 24193ft 311kts
19-Nov-18 09:21 33.566036 -116.214753 217 22660ft 313kts
19-Nov-18 09:22 33.496384 -116.275815 216 20888ft 309kts
19-Nov-18 09:23 33.428086 -116.335580 216 19162ft 307kts
19-Nov-18 09:24 33.359382 -116.395577 215 17429ft 305kts
19-Nov-18 09:25 33.291785 -116.454482 215 15595ft 297kts
19-Nov-18 09:26 33.226115 -116.511600 215 13931ft 294kts
19-Nov-18 09:27 33.160449 -116.568601 215 12280ft 290kts
19-Nov-18 09:28 33.087472 -116.591197 185 11921ft 264kts
19-Nov-18 09:29 33.015879 -116.598864 185 11925ft 257kts
19-Nov-18 09:30 32.944660 -116.606253 185 11927ft 259kts
19-Nov-18 09:31 32.874821 -116.613475 185 11933ft 262kts
19-Nov-18 09:32 32.813223 -116.649757 231 11470ft 271kts
19-Nov-18 09:33 32.767669 -116.718412 231 9986ft 265kts
19-Nov-18 09:34 32.723077 -116.786685 231 8375ft 257kts
19-Nov-18 09:35 32.682857 -116.853963 255 6524ft 252kts
19-Nov-18 09:36 32.674230 -116.931670 261 4749ft 230kts
19-Nov-18 09:37 32.682440 -117.000570 296 3912ft 190kts
19-Nov-18 09:38 32.699726 -117.057428 302 2478ft 165kts
19-Nov-18 09:39 32.711503 -117.101001 286 1267ft 134kts
19-Nov-18 09:40 32.721945 -117.141951 289 904ft 95kts
19-Nov-18 09:41 32.729038 -117.171243 288 211ft 91kts
19-Nov-18 09:42 32.734329 -117.190920 6 18ft 12kts
19-Nov-18 09:43 32.734849 -117.190401 79 19ft 7kts
19-Nov-18 09:44 32.733844 -117.186077 105 17ft 10kts
19-Nov-18 09:45 32.732795 -117.181749 106 17ft 11kts
19-Nov-18 09:46 32.731834 -117.177549 79 20ft 8kts
19-Nov-18 09:47 32.732277 -117.177284 195 21ft 0kts
19-Nov-18 09:48 32.732278 -117.177284 195 21ft 0kts
19-Nov-18 09:49 32.732278 -117.177284 195 21ft 0kts
19-Nov-18 09:50 32.732278 -117.177284 195 21ft 0kts

Navigation Log

Ident Type
Flight plan parsing failed, navigation log unavailable